createdAt,value
2022-09-10T11:59:08.937Z,5.25
2022-09-10T12:02:38.188Z,4.90
2022-09-10T12:06:36.818Z,5.20
2022-09-10T12:09:19.957Z,4.15
2022-09-10T12:12:26.259Z,4.30
2022-09-10T12:14:53.959Z,5.85
2022-09-10T12:17:35.394Z,7.45
2022-09-10T12:20:15.774Z,6.65
2022-09-10T12:22:45.135Z,6.00
2022-09-10T12:25:18.488Z,5.30
2022-09-10T12:27:55.916Z,6.90
2022-09-10T12:30:29.109Z,6.60
2022-09-10T12:33:23.003Z,6.13
2022-09-10T12:35:51.590Z,6.47
2022-09-10T12:39:20.382Z,5.32
2022-09-10T12:41:47.038Z,5.43
2022-09-10T12:44:36.800Z,6.15
2022-09-10T12:47:15.231Z,7.00
2022-09-10T12:49:59.763Z,6.20
2022-09-10T12:52:42.613Z,6.18
2022-09-10T12:55:50.801Z,5.95
2022-09-10T12:59:04.506Z,6.07
2022-09-10T13:01:51.300Z,6.00
2022-09-10T13:04:37.882Z,6.30
2022-09-10T13:07:35.784Z,6.80
2022-09-10T13:10:24.068Z,5.45
2022-09-10T13:12:59.376Z,5.18
2022-09-10T13:15:35.324Z,6.80
2022-09-10T13:18:36.462Z,6.40
2022-09-10T13:21:48.009Z,5.88
2022-09-10T13:24:33.732Z,5.30
2022-09-10T13:27:12.551Z,5.78
2022-09-10T13:29:48.916Z,5.57
2022-09-10T13:32:42.976Z,5.68
2022-09-10T13:35:21.897Z,5.75
2022-09-10T13:39:03.680Z,5.25
2022-09-10T13:42:18.694Z,5.18
2022-09-10T13:45:21.757Z,5.82
2022-09-10T13:48:09.950Z,4.47
2022-09-10T13:51:25.406Z,4.75
2022-09-10T13:54:07.416Z,4.72
2022-09-10T13:56:36.681Z,3.75
2022-09-10T13:59:07.536Z,4.53
2022-09-10T14:01:55.881Z,4.18
2022-09-10T14:04:42.999Z,4.15
2022-09-10T14:07:22.808Z,4.28
2022-09-10T14:10:06.117Z,4.45
2022-09-10T14:12:36.070Z,6.13
2022-09-10T14:15:07.274Z,5.97
2022-09-10T14:17:52.098Z,5.72
2022-09-10T14:20:30.207Z,6.25
2022-09-10T14:23:06.605Z,6.05
2022-09-10T14:25:36.403Z,5.70
2022-09-10T14:28:25.093Z,9.73
2022-09-10T14:31:28.215Z,10.65
2022-09-10T14:34:02.201Z,17.10
2022-09-10T14:36:28.783Z,9.35
2022-09-10T14:39:21.001Z,8.95
2022-09-10T14:42:07.817Z,8.88
2022-09-10T14:44:42.387Z,9.93
2022-09-10T14:47:08.969Z,9.43
2022-09-10T14:49:40.654Z,10.35
2022-09-10T14:52:10.710Z,10.52
2022-09-10T14:54:39.927Z,9.45
2022-09-10T14:57:17.024Z,10.13
2022-09-10T14:59:49.178Z,9.68
2022-09-10T15:02:29.105Z,9.35
2022-09-10T15:04:55.953Z,8.90
2022-09-10T15:07:25.433Z,9.68
2022-09-10T15:09:53.714Z,9.05
2022-09-10T15:12:32.868Z,9.48
2022-09-10T15:14:59.932Z,10.90
2022-09-10T15:17:27.206Z,10.70
2022-09-10T15:19:55.249Z,10.23
2022-09-10T15:22:31.424Z,10.00
2022-09-10T15:25:10.439Z,13.15
2022-09-10T15:27:37.781Z,10.18
2022-09-10T15:30:06.410Z,11.98
2022-09-10T15:32:33.037Z,12.27
2022-09-10T15:34:59.750Z,11.68
2022-09-10T15:37:27.086Z,11.60
2022-09-10T15:39:54.582Z,11.13
2022-09-10T15:42:22.927Z,11.30
2022-09-10T15:44:49.911Z,11.30
2022-09-10T15:47:16.998Z,11.10
2022-09-10T15:49:43.727Z,11.15
2022-09-10T15:52:10.335Z,11.95
2022-09-10T15:54:36.926Z,11.52
2022-09-10T15:57:03.714Z,10.48
2022-09-10T15:59:30.289Z,11.82
2022-09-10T16:01:57.081Z,11.70
2022-09-10T16:04:24.985Z,12.10
2022-09-10T16:06:52.041Z,12.88
2022-09-10T16:09:18.950Z,13.32
2022-09-10T16:11:46.011Z,12.68
2022-09-10T16:14:18.688Z,11.50
2022-09-10T16:16:48.394Z,12.60
2022-09-10T16:19:15.284Z,14.35
2022-09-10T16:21:41.986Z,12.35
2022-09-10T16:24:12.985Z,10.63
2022-09-10T16:26:51.522Z,11.95
2022-09-10T16:29:19.911Z,12.38
2022-09-10T16:31:52.925Z,12.98
2022-09-10T16:34:26.603Z,13.45
2022-09-10T16:36:53.311Z,12.90
2022-09-10T16:39:23.061Z,14.00
2022-09-10T16:41:51.016Z,14.82
2022-09-10T16:44:25.288Z,13.73
2022-09-10T16:46:52.459Z,14.07
2022-09-10T16:49:22.689Z,15.40
2022-09-10T16:51:49.371Z,15.30
2022-09-10T16:54:20.948Z,14.13
2022-09-10T16:56:50.326Z,14.25
2022-09-10T16:59:23.929Z,13.88
2022-09-10T17:01:52.589Z,19.00
2022-09-10T17:04:28.183Z,13.10
2022-09-10T17:06:57.341Z,14.05
2022-09-10T17:09:24.866Z,14.35
2022-09-10T17:11:51.916Z,13.88
2022-09-10T17:14:20.027Z,15.88
2022-09-10T17:16:48.005Z,14.35
2022-09-10T17:19:25.971Z,14.75
2022-09-10T17:21:55.997Z,13.82
2022-09-10T17:24:26.423Z,14.75
2022-09-10T17:26:57.926Z,14.88
2022-09-10T17:29:26.225Z,14.30
2022-09-10T17:31:55.194Z,14.30
2022-09-10T17:34:24.223Z,13.30
2022-09-10T17:36:51.376Z,13.50
2022-09-10T17:39:18.573Z,14.13
2022-09-10T17:41:46.305Z,13.95
2022-09-10T17:44:14.502Z,12.98
2022-09-10T17:46:42.841Z,15.38
2022-09-10T17:49:14.137Z,14.35
2022-09-10T17:51:43.023Z,14.48
2022-09-10T17:54:10.937Z,15.32
2022-09-10T17:56:38.072Z,16.42
2022-09-10T17:59:06.127Z,15.23
2022-09-10T18:01:38.628Z,15.13
2022-09-10T18:04:08.664Z,15.50
2022-09-10T18:06:36.705Z,16.13
2022-09-10T18:09:06.590Z,16.27
2022-09-10T18:11:40.594Z,17.15
2022-09-10T18:14:13.471Z,15.60
2022-09-10T18:16:40.135Z,14.95
2022-09-10T18:19:14.373Z,14.55
2022-09-10T18:21:45.420Z,14.52
2022-09-10T18:24:25.024Z,19.58
2022-09-10T18:26:54.590Z,15.77
2022-09-10T18:29:29.888Z,14.75
2022-09-10T18:32:03.526Z,14.65
2022-09-10T18:34:31.305Z,15.70
2022-09-10T18:37:02.811Z,15.93
2022-09-10T18:39:32.702Z,14.93
2022-09-10T18:42:03.400Z,14.40
2022-09-10T18:44:34.357Z,13.40
2022-09-10T18:47:01.337Z,13.02
2022-09-10T18:49:29.652Z,12.82
2022-09-10T18:51:57.974Z,13.07
2022-09-10T18:54:29.427Z,16.27
2022-09-10T18:56:57.607Z,14.98
2022-09-10T18:59:26.116Z,15.27
2022-09-10T19:01:56.026Z,16.13
2022-09-10T19:04:28.542Z,17.00
2022-09-10T19:06:57.854Z,18.15
2022-09-10T19:09:29.338Z,19.52
2022-09-10T19:12:00.376Z,20.88
2022-09-10T19:14:34.411Z,22.40
2022-09-10T19:17:03.433Z,24.80
2022-09-10T19:19:35.248Z,24.60
2022-09-10T19:22:10.568Z,22.77
2022-09-10T19:24:54.517Z,26.30
2022-09-10T19:27:22.330Z,23.42
2022-09-10T19:29:49.766Z,24.08
2022-09-10T19:32:19.421Z,24.02
2022-09-10T19:34:50.284Z,27.70
2022-09-10T19:37:17.429Z,25.83
2022-09-10T19:39:46.597Z,23.52
2022-09-10T19:42:13.390Z,30.65
2022-09-10T19:44:40.020Z,31.35
2022-09-10T19:47:06.656Z,34.20
2022-09-10T19:49:34.179Z,31.83
2022-09-10T19:52:01.703Z,30.08
2022-09-10T19:54:30.324Z,28.00
2022-09-10T19:56:57.207Z,30.40
2022-09-10T19:59:24.126Z,27.80
2022-09-10T20:01:51.079Z,27.85
2022-09-10T20:04:22.861Z,26.40
2022-09-10T20:06:50.503Z,25.23
2022-09-10T20:09:17.927Z,30.45
2022-09-10T20:11:45.178Z,25.58
2022-09-10T20:14:14.736Z,28.08
2022-09-10T20:16:47.362Z,27.25
2022-09-10T20:19:18.621Z,24.10
2022-09-10T20:21:49.154Z,29.58
2022-09-10T20:24:20.136Z,29.48
2022-09-10T20:26:49.070Z,25.48
2022-09-10T20:29:19.599Z,22.42
2022-09-10T20:31:49.830Z,17.33
2022-09-10T20:34:22.704Z,16.00
2022-09-10T20:36:51.702Z,14.88
2022-09-10T20:39:25.260Z,12.18
2022-09-10T20:41:52.478Z,11.07
2022-09-10T20:44:23.093Z,10.63
2022-09-10T20:46:50.262Z,10.13
2022-09-10T20:49:17.871Z,7.90
2022-09-10T20:51:45.736Z,7.95
2022-09-10T20:54:19.221Z,7.57
2022-09-10T20:56:47.256Z,7.00
2022-09-10T20:59:17.959Z,6.90
2022-09-10T21:01:47.002Z,6.60
2022-09-10T21:04:15.331Z,6.95
2022-09-10T21:06:42.695Z,6.68
2022-09-10T21:09:09.526Z,7.65
2022-09-10T21:11:37.814Z,8.20
2022-09-10T21:14:07.498Z,7.47
2022-09-10T21:16:42.226Z,8.60
2022-09-10T21:19:17.905Z,10.43
2022-09-10T21:21:48.634Z,15.88
2022-09-10T21:24:22.467Z,18.92
2022-09-10T21:26:50.358Z,22.20
2022-09-10T21:29:20.834Z,25.73
2022-09-10T21:31:50.635Z,27.20
2022-09-10T21:34:17.451Z,27.48
2022-09-10T21:36:44.136Z,27.15
2022-09-10T21:39:17.513Z,25.33
2022-09-10T21:41:48.936Z,26.73
2022-09-10T21:44:22.961Z,24.95
2022-09-10T21:46:52.017Z,26.27
2022-09-10T21:49:22.161Z,26.02
2022-09-10T21:51:49.507Z,25.83
2022-09-10T21:54:21.038Z,25.98
2022-09-10T21:56:50.317Z,23.48
2022-09-10T21:59:17.358Z,22.85
2022-09-10T22:01:47.073Z,24.00
2022-09-10T22:04:19.986Z,24.73
2022-09-10T22:06:48.665Z,24.58
2022-09-10T22:09:16.931Z,25.35
2022-09-10T22:11:50.092Z,24.67
2022-09-10T22:14:24.343Z,23.85
2022-09-10T22:16:52.741Z,25.33
2022-09-10T22:19:25.798Z,24.17
2022-09-10T22:21:57.315Z,25.17
2022-09-10T22:24:25.928Z,26.42
2022-09-10T22:26:52.660Z,29.25
2022-09-10T22:29:20.515Z,34.67
2022-09-10T22:31:49.505Z,34.60
2022-09-10T22:34:18.431Z,36.00
2022-09-10T22:36:48.089Z,38.53
2022-09-10T22:39:21.232Z,38.80
2022-09-10T22:41:51.064Z,40.00
2022-09-10T22:44:19.257Z,41.05
2022-09-10T22:46:46.611Z,44.13
2022-09-10T22:49:15.942Z,47.70
2022-09-10T22:51:43.315Z,48.55
2022-09-10T22:54:11.253Z,55.03
2022-09-10T22:56:38.211Z,47.28
2022-09-10T22:59:07.062Z,48.30
2022-09-10T23:01:38.044Z,52.13
2022-09-10T23:04:07.885Z,44.53
2022-09-10T23:06:38.548Z,42.25
2022-09-10T23:09:15.995Z,42.75
2022-09-10T23:11:44.652Z,44.47
2022-09-10T23:14:19.863Z,41.55
2022-09-10T23:16:50.860Z,40.88
2022-09-10T23:19:22.863Z,41.40
2022-09-10T23:21:54.441Z,40.50
2022-09-10T23:24:26.213Z,38.67
2022-09-10T23:26:54.018Z,35.85
2022-09-10T23:29:23.256Z,34.72
2022-09-10T23:31:53.230Z,36.35
2022-09-10T23:34:21.276Z,33.83
2022-09-10T23:36:49.509Z,32.95
2022-09-10T23:39:23.232Z,33.22
2022-09-10T23:41:54.815Z,31.25
2022-09-10T23:44:21.646Z,30.40
2022-09-10T23:46:48.600Z,31.95
2022-09-10T23:49:15.917Z,30.67
2022-09-10T23:51:43.020Z,27.73
2022-09-10T23:54:12.760Z,26.15
2022-09-10T23:56:40.070Z,23.88
2022-09-10T23:59:07.402Z,22.90
